Martin Park, Louisiana
Current Conditions -  °F | °C
As of 3:53 AM on Saturday 22 Nov 2014 (Local Time) from KAEX Reporting Station
Overcast Overcast  
Wind Chill: 58°   Ceiling: 10000
Heat Index: 58°   Visibility: 10mi
Dew Point: 50°   Wind: 7mph
Humidity: 75%   Direction: 120°ESE
Pressure: 30.19"   Gusts: NA
Location:  31.2655°N, 92.4705°W
Report Text: KAEX 220953Z AUTO 12006KT 10SM OVC100 14/10 A3019 RMK AO2 SLP226 T01440100
Loading
Personal Weather Stations






























Interactive Weather Map New forecast layout! Learn more

10-Day Weather Forecast

Advertisements
Track Severe Weather on mobile